Aviation Digital Data Service (ADDS)

Output produced by METARs form (1658 UTC 16 June 2019)
found at http://www.aviationweather.gov/metar/data/
 
TAF TNCA 161000Z 1612/1712 09012KT 9999 SCT018 
     TEMPO 1612/1616 BKN014